sensor_id;sensor_type;location;lat;lon;timestamp;temperature;humidity
18717;DHT22;9487;50.892;6.906;2022-10-26T00:01:21;13.20;99.90
18717;DHT22;9487;50.892;6.906;2022-10-26T00:03:48;13.30;99.90
18717;DHT22;9487;50.892;6.906;2022-10-26T00:06:17;13.30;99.90
18717;DHT22;9487;50.892;6.906;2022-10-26T00:08:45;13.40;99.90
18717;DHT22;9487;50.892;6.906;2022-10-26T00:11:12;13.40;99.90
18717;DHT22;9487;50.892;6.906;2022-10-26T00:13:42;13.40;99.90
18717;DHT22;9487;50.892;6.906;2022-10-26T00:16:10;13.50;99.90
18717;DHT22;9487;50.892;6.906;2022-10-26T00:18:37;13.50;99.90
18717;DHT22;9487;50.892;6.906;2022-10-26T00:21:05;13.50;99.90
18717;DHT22;9487;50.892;6.906;2022-10-26T00:23:32;13.40;99.90
18717;DHT22;9487;50.892;6.906;2022-10-26T00:26:00;13.40;99.90
18717;DHT22;9487;50.892;6.906;2022-10-26T00:28:27;13.50;99.90
18717;DHT22;9487;50.892;6.906;2022-10-26T00:30:59;13.50;99.90
18717;DHT22;9487;50.892;6.906;2022-10-26T00:33:26;13.50;99.90
18717;DHT22;9487;50.892;6.906;2022-10-26T00:35:55;13.40;99.90
18717;DHT22;9487;50.892;6.906;2022-10-26T00:38:21;13.40;99.90
18717;DHT22;9487;50.892;6.906;2022-10-26T00:40:48;13.40;99.90
18717;DHT22;9487;50.892;6.906;2022-10-26T00:45:59;13.30;99.90
18717;DHT22;9487;50.892;6.906;2022-10-26T00:48:28;13.30;99.90
18717;DHT22;9487;50.892;6.906;2022-10-26T00:50:57;13.30;99.90
18717;DHT22;9487;50.892;6.906;2022-10-26T00:53:25;13.30;99.90
18717;DHT22;9487;50.892;6.906;2022-10-26T00:55:53;13.30;99.90
18717;DHT22;9487;50.892;6.906;2022-10-26T00:58:20;13.40;99.90
18717;DHT22;9487;50.892;6.906;2022-10-26T01:00:49;13.50;99.90
18717;DHT22;9487;50.892;6.906;2022-10-26T01:03:18;13.50;99.90
18717;DHT22;9487;50.892;6.906;2022-10-26T01:05:46;13.50;99.90
18717;DHT22;9487;50.892;6.906;2022-10-26T01:08:16;13.60;99.90
18717;DHT22;9487;50.892;6.906;2022-10-26T01:10:44;13.50;99.90
18717;DHT22;9487;50.892;6.906;2022-10-26T01:13:11;13.40;99.90
18717;DHT22;9487;50.892;6.906;2022-10-26T01:15:47;13.40;99.90
18717;DHT22;9487;50.892;6.906;2022-10-26T01:18:21;13.50;99.90
18717;DHT22;9487;50.892;6.906;2022-10-26T01:21:13;13.50;99.90
18717;DHT22;9487;50.892;6.906;2022-10-26T01:23:54;13.60;99.90
18717;DHT22;9487;50.892;6.906;2022-10-26T01:29:48;13.50;99.90
18717;DHT22;9487;50.892;6.906;2022-10-26T01:32:22;13.50;99.90
18717;DHT22;9487;50.892;6.906;2022-10-26T01:34:55;13.50;99.90
18717;DHT22;9487;50.892;6.906;2022-10-26T01:37:29;13.50;99.90
18717;DHT22;9487;50.892;6.906;2022-10-26T01:40:01;13.60;99.90
18717;DHT22;9487;50.892;6.906;2022-10-26T01:42:30;13.60;99.90
18717;DHT22;9487;50.892;6.906;2022-10-26T01:45:01;13.50;99.90
18717;DHT22;9487;50.892;6.906;2022-10-26T01:47:32;13.60;99.90
18717;DHT22;9487;50.892;6.906;2022-10-26T01:50:01;13.60;99.90
18717;DHT22;9487;50.892;6.906;2022-10-26T01:52:28;13.60;99.90
18717;DHT22;9487;50.892;6.906;2022-10-26T01:54:59;13.60;99.90
18717;DHT22;9487;50.892;6.906;2022-10-26T01:57:27;13.50;99.90
18717;DHT22;9487;50.892;6.906;2022-10-26T02:00:03;13.50;99.90
18717;DHT22;9487;50.892;6.906;2022-10-26T02:02:50;13.40;99.90
18717;DHT22;9487;50.892;6.906;2022-10-26T02:05:38;13.50;99.90
18717;DHT22;9487;50.892;6.906;2022-10-26T02:08:20;13.50;99.90
18717;DHT22;9487;50.892;6.906;2022-10-26T02:11:00;13.50;99.90
18717;DHT22;9487;50.892;6.906;2022-10-26T02:13:36;13.50;99.90
18717;DHT22;9487;50.892;6.906;2022-10-26T02:16:12;13.60;99.90
18717;DHT22;9487;50.892;6.906;2022-10-26T02:18:45;13.60;99.90
18717;DHT22;9487;50.892;6.906;2022-10-26T02:21:19;13.60;99.90
18717;DHT22;9487;50.892;6.906;2022-10-26T02:23:48;13.70;99.90
18717;DHT22;9487;50.892;6.906;2022-10-26T02:26:21;13.70;99.90
18717;DHT22;9487;50.892;6.906;2022-10-26T02:28:51;13.70;99.90
18717;DHT22;9487;50.892;6.906;2022-10-26T02:31:19;13.70;99.90
18717;DHT22;9487;50.892;6.906;2022-10-26T02:33:49;13.70;99.90
18717;DHT22;9487;50.892;6.906;2022-10-26T02:36:20;13.70;99.90
18717;DHT22;9487;50.892;6.906;2022-10-26T02:38:50;13.70;99.90
18717;DHT22;9487;50.892;6.906;2022-10-26T02:41:20;13.70;99.90
18717;DHT22;9487;50.892;6.906;2022-10-26T02:43:52;13.70;99.90
18717;DHT22;9487;50.892;6.906;2022-10-26T02:46:21;13.60;99.90
18717;DHT22;9487;50.892;6.906;2022-10-26T02:48:50;13.60;99.90
18717;DHT22;9487;50.892;6.906;2022-10-26T02:51:21;13.60;99.90
18717;DHT22;9487;50.892;6.906;2022-10-26T02:53:55;13.60;99.90
18717;DHT22;9487;50.892;6.906;2022-10-26T02:56:34;13.60;99.90
18717;DHT22;9487;50.892;6.906;2022-10-26T02:59:04;13.60;99.90
18717;DHT22;9487;50.892;6.906;2022-10-26T03:01:33;13.70;99.90
18717;DHT22;9487;50.892;6.906;2022-10-26T03:04:02;13.70;99.90
18717;DHT22;9487;50.892;6.906;2022-10-26T03:06:29;13.70;99.90
18717;DHT22;9487;50.892;6.906;2022-10-26T03:08:55;13.80;99.90
18717;DHT22;9487;50.892;6.906;2022-10-26T03:11:22;13.80;99.90
18717;DHT22;9487;50.892;6.906;2022-10-26T03:13:49;13.90;99.90
18717;DHT22;9487;50.892;6.906;2022-10-26T03:16:16;13.90;99.90
18717;DHT22;9487;50.892;6.906;2022-10-26T03:18:43;13.80;99.90
18717;DHT22;9487;50.892;6.906;2022-10-26T03:21:11;13.80;99.90
18717;DHT22;9487;50.892;6.906;2022-10-26T03:23:38;13.70;99.90
18717;DHT22;9487;50.892;6.906;2022-10-26T03:26:05;13.80;99.90
18717;DHT22;9487;50.892;6.906;2022-10-26T03:28:31;13.70;99.90
18717;DHT22;9487;50.892;6.906;2022-10-26T03:30:58;13.70;99.90
18717;DHT22;9487;50.892;6.906;2022-10-26T03:33:25;13.70;99.90
18717;DHT22;9487;50.892;6.906;2022-10-26T03:35:55;13.80;99.90
18717;DHT22;9487;50.892;6.906;2022-10-26T03:38:23;13.80;99.90
18717;DHT22;9487;50.892;6.906;2022-10-26T03:40:50;13.80;99.90
18717;DHT22;9487;50.892;6.906;2022-10-26T03:43:17;13.80;99.90
18717;DHT22;9487;50.892;6.906;2022-10-26T03:45:44;13.80;99.90
18717;DHT22;9487;50.892;6.906;2022-10-26T03:48:11;13.90;99.90
18717;DHT22;9487;50.892;6.906;2022-10-26T03:50:38;13.90;99.90
18717;DHT22;9487;50.892;6.906;2022-10-26T03:53:05;13.90;99.90
18717;DHT22;9487;50.892;6.906;2022-10-26T03:55:33;13.90;99.90
18717;DHT22;9487;50.892;6.906;2022-10-26T03:58:00;14.00;99.90
18717;DHT22;9487;50.892;6.906;2022-10-26T04:00:27;14.00;99.90
18717;DHT22;9487;50.892;6.906;2022-10-26T04:02:55;14.00;99.90
18717;DHT22;9487;50.892;6.906;2022-10-26T04:05:22;14.00;99.90
18717;DHT22;9487;50.892;6.906;2022-10-26T04:07:52;14.00;99.90
18717;DHT22;9487;50.892;6.906;2022-10-26T04:10:19;14.00;99.90
18717;DHT22;9487;50.892;6.906;2022-10-26T04:12:48;14.00;99.90
18717;DHT22;9487;50.892;6.906;2022-10-26T04:15:15;14.00;99.90
18717;DHT22;9487;50.892;6.906;2022-10-26T04:17:42;14.00;99.90
18717;DHT22;9487;50.892;6.906;2022-10-26T04:20:09;14.00;99.90
18717;DHT22;9487;50.892;6.906;2022-10-26T04:22:36;14.10;99.90
18717;DHT22;9487;50.892;6.906;2022-10-26T04:25:04;14.20;99.90
18717;DHT22;9487;50.892;6.906;2022-10-26T04:27:31;14.10;99.90
18717;DHT22;9487;50.892;6.906;2022-10-26T04:29:59;14.10;99.90
18717;DHT22;9487;50.892;6.906;2022-10-26T04:32:26;14.10;99.90
18717;DHT22;9487;50.892;6.906;2022-10-26T04:34:53;14.10;99.90
18717;DHT22;9487;50.892;6.906;2022-10-26T04:37:20;14.10;99.90
18717;DHT22;9487;50.892;6.906;2022-10-26T04:39:47;14.20;99.90
18717;DHT22;9487;50.892;6.906;2022-10-26T04:42:13;14.20;99.90
18717;DHT22;9487;50.892;6.906;2022-10-26T04:44:40;14.20;99.90
18717;DHT22;9487;50.892;6.906;2022-10-26T04:47:08;14.30;99.90
18717;DHT22;9487;50.892;6.906;2022-10-26T04:49:35;14.30;99.90
18717;DHT22;9487;50.892;6.906;2022-10-26T04:52:03;14.30;99.90
18717;DHT22;9487;50.892;6.906;2022-10-26T04:54:30;14.30;99.90
18717;DHT22;9487;50.892;6.906;2022-10-26T04:56:58;14.40;99.90
18717;DHT22;9487;50.892;6.906;2022-10-26T04:59:25;14.40;99.90
18717;DHT22;9487;50.892;6.906;2022-10-26T05:01:51;14.50;99.90
18717;DHT22;9487;50.892;6.906;2022-10-26T05:04:20;14.50;99.90
18717;DHT22;9487;50.892;6.906;2022-10-26T05:06:46;14.60;99.90
18717;DHT22;9487;50.892;6.906;2022-10-26T05:09:13;14.60;99.90
18717;DHT22;9487;50.892;6.906;2022-10-26T05:11:40;14.60;99.90
18717;DHT22;9487;50.892;6.906;2022-10-26T05:14:07;14.60;99.90
18717;DHT22;9487;50.892;6.906;2022-10-26T05:16:34;14.70;99.90
18717;DHT22;9487;50.892;6.906;2022-10-26T05:19:01;14.70;99.90
18717;DHT22;9487;50.892;6.906;2022-10-26T05:21:29;14.70;99.90
18717;DHT22;9487;50.892;6.906;2022-10-26T05:23:56;14.70;99.90
18717;DHT22;9487;50.892;6.906;2022-10-26T05:26:23;14.70;99.90
18717;DHT22;9487;50.892;6.906;2022-10-26T05:28:50;14.60;99.90
18717;DHT22;9487;50.892;6.906;2022-10-26T05:31:17;14.60;99.90
18717;DHT22;9487;50.892;6.906;2022-10-26T05:33:47;14.60;99.90
18717;DHT22;9487;50.892;6.906;2022-10-26T05:36:14;14.70;99.90
18717;DHT22;9487;50.892;6.906;2022-10-26T05:38:42;14.80;99.90
18717;DHT22;9487;50.892;6.906;2022-10-26T05:41:09;14.80;99.90
18717;DHT22;9487;50.892;6.906;2022-10-26T05:43:36;14.80;99.90
18717;DHT22;9487;50.892;6.906;2022-10-26T05:46:03;14.80;99.90
18717;DHT22;9487;50.892;6.906;2022-10-26T05:48:30;14.80;99.90
18717;DHT22;9487;50.892;6.906;2022-10-26T05:50:58;14.70;99.90
18717;DHT22;9487;50.892;6.906;2022-10-26T05:53:25;14.80;99.90
18717;DHT22;9487;50.892;6.906;2022-10-26T05:55:53;14.70;99.90
18717;DHT22;9487;50.892;6.906;2022-10-26T05:58:21;14.80;99.90
18717;DHT22;9487;50.892;6.906;2022-10-26T06:00:59;14.80;99.90
18717;DHT22;9487;50.892;6.906;2022-10-26T06:03:40;14.70;99.90
18717;DHT22;9487;50.892;6.906;2022-10-26T06:06:12;14.70;99.90
18717;DHT22;9487;50.892;6.906;2022-10-26T06:08:39;14.70;99.90
18717;DHT22;9487;50.892;6.906;2022-10-26T06:11:09;14.70;99.90
18717;DHT22;9487;50.892;6.906;2022-10-26T06:13:37;14.60;99.90
18717;DHT22;9487;50.892;6.906;2022-10-26T06:16:20;14.60;99.90
18717;DHT22;9487;50.892;6.906;2022-10-26T06:18:52;14.50;99.90
18717;DHT22;9487;50.892;6.906;2022-10-26T06:21:33;14.50;99.90
18717;DHT22;9487;50.892;6.906;2022-10-26T06:24:06;14.50;99.90
18717;DHT22;9487;50.892;6.906;2022-10-26T06:26:41;14.50;99.90
18717;DHT22;9487;50.892;6.906;2022-10-26T06:29:18;14.40;99.90
18717;DHT22;9487;50.892;6.906;2022-10-26T06:31:48;14.40;99.90
18717;DHT22;9487;50.892;6.906;2022-10-26T06:34:20;14.30;99.90
18717;DHT22;9487;50.892;6.906;2022-10-26T06:36:48;14.30;99.90
18717;DHT22;9487;50.892;6.906;2022-10-26T06:39:17;14.30;99.90
18717;DHT22;9487;50.892;6.906;2022-10-26T06:41:47;14.30;99.90
18717;DHT22;9487;50.892;6.906;2022-10-26T06:44:21;14.30;99.90
18717;DHT22;9487;50.892;6.906;2022-10-26T06:46:53;14.30;99.90
18717;DHT22;9487;50.892;6.906;2022-10-26T06:49:28;14.30;99.90
18717;DHT22;9487;50.892;6.906;2022-10-26T06:51:58;14.20;99.90
18717;DHT22;9487;50.892;6.906;2022-10-26T06:54:30;14.20;99.90
18717;DHT22;9487;50.892;6.906;2022-10-26T06:57:03;14.20;99.90
18717;DHT22;9487;50.892;6.906;2022-10-26T06:59:34;14.20;99.90
18717;DHT22;9487;50.892;6.906;2022-10-26T07:02:03;14.30;99.90
18717;DHT22;9487;50.892;6.906;2022-10-26T07:04:30;14.40;99.90
18717;DHT22;9487;50.892;6.906;2022-10-26T07:06:57;14.30;99.90
18717;DHT22;9487;50.892;6.906;2022-10-26T07:09:23;14.30;99.90
18717;DHT22;9487;50.892;6.906;2022-10-26T07:11:50;14.30;99.90
18717;DHT22;9487;50.892;6.906;2022-10-26T07:14:18;14.40;99.90
18717;DHT22;9487;50.892;6.906;2022-10-26T07:16:45;14.30;99.90
18717;DHT22;9487;50.892;6.906;2022-10-26T07:19:12;14.40;99.90
18717;DHT22;9487;50.892;6.906;2022-10-26T07:21:39;14.40;99.90
18717;DHT22;9487;50.892;6.906;2022-10-26T07:24:06;14.40;99.90
18717;DHT22;9487;50.892;6.906;2022-10-26T07:26:33;14.40;99.90
18717;DHT22;9487;50.892;6.906;2022-10-26T07:29:00;14.50;99.90
18717;DHT22;9487;50.892;6.906;2022-10-26T07:31:28;14.50;99.90
18717;DHT22;9487;50.892;6.906;2022-10-26T07:33:56;14.50;99.90
18717;DHT22;9487;50.892;6.906;2022-10-26T07:36:23;14.50;99.90
18717;DHT22;9487;50.892;6.906;2022-10-26T07:38:51;14.60;99.90
18717;DHT22;9487;50.892;6.906;2022-10-26T07:41:18;14.60;99.90
18717;DHT22;9487;50.892;6.906;2022-10-26T07:43:45;14.60;99.90
18717;DHT22;9487;50.892;6.906;2022-10-26T07:46:13;14.80;99.90
18717;DHT22;9487;50.892;6.906;2022-10-26T07:48:42;15.00;99.90
18717;DHT22;9487;50.892;6.906;2022-10-26T07:51:08;15.10;99.90
18717;DHT22;9487;50.892;6.906;2022-10-26T07:53:35;15.10;99.90
18717;DHT22;9487;50.892;6.906;2022-10-26T07:56:04;15.20;99.90
18717;DHT22;9487;50.892;6.906;2022-10-26T07:58:31;15.30;99.90
18717;DHT22;9487;50.892;6.906;2022-10-26T08:01:04;15.50;99.90
18717;DHT22;9487;50.892;6.906;2022-10-26T08:03:31;15.50;99.90
18717;DHT22;9487;50.892;6.906;2022-10-26T08:06:00;15.60;99.90
18717;DHT22;9487;50.892;6.906;2022-10-26T08:08:28;15.50;99.90
18717;DHT22;9487;50.892;6.906;2022-10-26T08:10:55;15.50;99.90
18717;DHT22;9487;50.892;6.906;2022-10-26T08:13:22;15.50;99.90
18717;DHT22;9487;50.892;6.906;2022-10-26T08:15:49;15.60;99.90
18717;DHT22;9487;50.892;6.906;2022-10-26T08:18:16;15.70;99.90
18717;DHT22;9487;50.892;6.906;2022-10-26T08:20:42;15.80;99.90
18717;DHT22;9487;50.892;6.906;2022-10-26T08:23:11;15.90;99.90
18717;DHT22;9487;50.892;6.906;2022-10-26T08:25:37;16.00;99.90
18717;DHT22;9487;50.892;6.906;2022-10-26T08:28:04;16.10;99.90
18717;DHT22;9487;50.892;6.906;2022-10-26T08:30:31;16.20;99.90
18717;DHT22;9487;50.892;6.906;2022-10-26T08:32:59;16.40;99.90
18717;DHT22;9487;50.892;6.906;2022-10-26T08:35:26;16.50;99.90
18717;DHT22;9487;50.892;6.906;2022-10-26T08:37:53;16.70;99.90
18717;DHT22;9487;50.892;6.906;2022-10-26T08:40:25;16.80;99.90
18717;DHT22;9487;50.892;6.906;2022-10-26T08:42:56;16.90;99.90
18717;DHT22;9487;50.892;6.906;2022-10-26T08:45:26;17.10;99.90
18717;DHT22;9487;50.892;6.906;2022-10-26T08:47:55;17.20;99.90
18717;DHT22;9487;50.892;6.906;2022-10-26T08:50:26;17.20;99.90
18717;DHT22;9487;50.892;6.906;2022-10-26T08:52:57;17.10;99.90
18717;DHT22;9487;50.892;6.906;2022-10-26T08:55:33;16.90;99.90
18717;DHT22;9487;50.892;6.906;2022-10-26T08:58:06;16.80;99.90
18717;DHT22;9487;50.892;6.906;2022-10-26T09:00:37;16.70;99.90
18717;DHT22;9487;50.892;6.906;2022-10-26T09:03:11;16.60;99.90
18717;DHT22;9487;50.892;6.906;2022-10-26T09:05:45;16.50;99.90
18717;DHT22;9487;50.892;6.906;2022-10-26T09:08:19;16.50;99.90
18717;DHT22;9487;50.892;6.906;2022-10-26T09:10:59;16.40;99.90
18717;DHT22;9487;50.892;6.906;2022-10-26T09:13:37;16.30;99.90
18717;DHT22;9487;50.892;6.906;2022-10-26T09:16:15;16.40;99.90
18717;DHT22;9487;50.892;6.906;2022-10-26T09:18:55;16.50;99.90
18717;DHT22;9487;50.892;6.906;2022-10-26T09:21:33;16.50;99.90
18717;DHT22;9487;50.892;6.906;2022-10-26T09:24:06;16.60;99.90
18717;DHT22;9487;50.892;6.906;2022-10-26T09:26:42;16.70;99.90
18717;DHT22;9487;50.892;6.906;2022-10-26T09:29:13;16.80;99.90
18717;DHT22;9487;50.892;6.906;2022-10-26T09:31:42;17.00;99.90
18717;DHT22;9487;50.892;6.906;2022-10-26T09:34:17;17.30;99.90
18717;DHT22;9487;50.892;6.906;2022-10-26T09:36:46;17.50;99.90
18717;DHT22;9487;50.892;6.906;2022-10-26T09:39:18;17.60;99.90
18717;DHT22;9487;50.892;6.906;2022-10-26T09:41:52;17.70;99.90
18717;DHT22;9487;50.892;6.906;2022-10-26T09:44:24;17.80;99.90
18717;DHT22;9487;50.892;6.906;2022-10-26T09:46:57;18.00;99.90
18717;DHT22;9487;50.892;6.906;2022-10-26T09:49:30;18.20;99.90
18717;DHT22;9487;50.892;6.906;2022-10-26T09:51:58;18.30;99.90
18717;DHT22;9487;50.892;6.906;2022-10-26T09:54:25;18.50;99.90
18717;DHT22;9487;50.892;6.906;2022-10-26T09:56:56;18.60;99.90
18717;DHT22;9487;50.892;6.906;2022-10-26T09:59:26;18.70;99.90
18717;DHT22;9487;50.892;6.906;2022-10-26T10:01:55;18.80;99.90
18717;DHT22;9487;50.892;6.906;2022-10-26T10:04:22;18.90;99.90
18717;DHT22;9487;50.892;6.906;2022-10-26T10:06:51;18.90;99.90
18717;DHT22;9487;50.892;6.906;2022-10-26T10:09:19;19.00;99.90
18717;DHT22;9487;50.892;6.906;2022-10-26T10:11:48;19.10;99.90
18717;DHT22;9487;50.892;6.906;2022-10-26T10:14:23;19.20;99.90
18717;DHT22;9487;50.892;6.906;2022-10-26T10:16:53;19.20;99.90
18717;DHT22;9487;50.892;6.906;2022-10-26T10:19:22;19.50;99.90
18717;DHT22;9487;50.892;6.906;2022-10-26T10:21:52;19.80;99.90
18717;DHT22;9487;50.892;6.906;2022-10-26T10:24:26;19.90;99.90
18717;DHT22;9487;50.892;6.906;2022-10-26T10:27:01;20.00;99.90
18717;DHT22;9487;50.892;6.906;2022-10-26T10:29:30;19.90;99.90
18717;DHT22;9487;50.892;6.906;2022-10-26T10:31:59;20.10;99.90
18717;DHT22;9487;50.892;6.906;2022-10-26T10:34:29;20.10;99.90
18717;DHT22;9487;50.892;6.906;2022-10-26T10:36:56;20.20;99.90
18717;DHT22;9487;50.892;6.906;2022-10-26T10:39:39;20.30;99.90
18717;DHT22;9487;50.892;6.906;2022-10-26T10:42:16;20.40;99.90
18717;DHT22;9487;50.892;6.906;2022-10-26T10:44:46;20.50;99.90
18717;DHT22;9487;50.892;6.906;2022-10-26T10:47:24;20.50;99.90
18717;DHT22;9487;50.892;6.906;2022-10-26T10:49:54;20.50;99.90
18717;DHT22;9487;50.892;6.906;2022-10-26T10:52:24;20.60;99.90
18717;DHT22;9487;50.892;6.906;2022-10-26T10:55:01;20.40;99.90
18717;DHT22;9487;50.892;6.906;2022-10-26T10:57:38;20.60;99.90
18717;DHT22;9487;50.892;6.906;2022-10-26T11:00:22;20.50;99.90
18717;DHT22;9487;50.892;6.906;2022-10-26T11:03:10;20.60;99.90
18717;DHT22;9487;50.892;6.906;2022-10-26T11:06:00;20.90;99.90
18717;DHT22;9487;50.892;6.906;2022-10-26T11:08:34;20.90;99.90
18717;DHT22;9487;50.892;6.906;2022-10-26T11:11:06;21.10;99.90
18717;DHT22;9487;50.892;6.906;2022-10-26T11:13:37;21.20;99.90
18717;DHT22;9487;50.892;6.906;2022-10-26T11:16:12;21.40;99.90
18717;DHT22;9487;50.892;6.906;2022-10-26T11:18:42;21.30;99.90
18717;DHT22;9487;50.892;6.906;2022-10-26T11:21:19;21.30;99.90
18717;DHT22;9487;50.892;6.906;2022-10-26T11:23:51;21.30;99.90
18717;DHT22;9487;50.892;6.906;2022-10-26T11:26:23;21.40;99.90
18717;DHT22;9487;50.892;6.906;2022-10-26T11:28:56;21.40;99.90
18717;DHT22;9487;50.892;6.906;2022-10-26T11:31:30;21.60;99.90
18717;DHT22;9487;50.892;6.906;2022-10-26T11:34:17;21.60;99.90
18717;DHT22;9487;50.892;6.906;2022-10-26T11:36:48;21.70;99.90
18717;DHT22;9487;50.892;6.906;2022-10-26T11:39:23;21.80;99.90
18717;DHT22;9487;50.892;6.906;2022-10-26T11:41:56;21.80;99.90
18717;DHT22;9487;50.892;6.906;2022-10-26T11:44:30;21.80;99.90
18717;DHT22;9487;50.892;6.906;2022-10-26T11:47:03;21.70;99.90
18717;DHT22;9487;50.892;6.906;2022-10-26T11:49:38;21.60;99.90
18717;DHT22;9487;50.892;6.906;2022-10-26T11:52:12;21.70;99.90
18717;DHT22;9487;50.892;6.906;2022-10-26T11:54:45;21.80;99.90
18717;DHT22;9487;50.892;6.906;2022-10-26T11:57:14;21.90;99.90
18717;DHT22;9487;50.892;6.906;2022-10-26T11:59:45;22.00;99.90
18717;DHT22;9487;50.892;6.906;2022-10-26T12:02:17;22.00;99.90
18717;DHT22;9487;50.892;6.906;2022-10-26T12:04:49;22.00;99.90
18717;DHT22;9487;50.892;6.906;2022-10-26T12:07:23;22.10;99.90
18717;DHT22;9487;50.892;6.906;2022-10-26T12:09:51;22.00;99.90
18717;DHT22;9487;50.892;6.906;2022-10-26T12:12:24;22.00;99.90
18717;DHT22;9487;50.892;6.906;2022-10-26T12:14:58;22.00;99.90
18717;DHT22;9487;50.892;6.906;2022-10-26T12:17:34;22.00;99.90
18717;DHT22;9487;50.892;6.906;2022-10-26T12:20:15;22.00;99.90
18717;DHT22;9487;50.892;6.906;2022-10-26T12:22:44;22.00;99.90
18717;DHT22;9487;50.892;6.906;2022-10-26T12:25:19;22.00;99.90
18717;DHT22;9487;50.892;6.906;2022-10-26T12:27:51;22.00;99.90
18717;DHT22;9487;50.892;6.906;2022-10-26T12:30:25;22.00;99.90
18717;DHT22;9487;50.892;6.906;2022-10-26T12:32:55;22.00;99.90
18717;DHT22;9487;50.892;6.906;2022-10-26T12:35:37;22.00;99.90
18717;DHT22;9487;50.892;6.906;2022-10-26T12:41:17;21.80;99.90
18717;DHT22;9487;50.892;6.906;2022-10-26T12:43:45;21.80;99.90
18717;DHT22;9487;50.892;6.906;2022-10-26T12:46:39;21.70;99.90
18717;DHT22;9487;50.892;6.906;2022-10-26T12:52:47;21.70;99.90
18717;DHT22;9487;50.892;6.906;2022-10-26T12:58:56;21.80;99.90
18717;DHT22;9487;50.892;6.906;2022-10-26T13:01:49;21.90;99.90
18717;DHT22;9487;50.892;6.906;2022-10-26T13:07:17;21.90;99.90
18717;DHT22;9487;50.892;6.906;2022-10-26T13:09:58;22.10;99.90
18717;DHT22;9487;50.892;6.906;2022-10-26T13:12:28;22.20;99.90
18717;DHT22;9487;50.892;6.906;2022-10-26T13:14:59;22.30;99.90
18717;DHT22;9487;50.892;6.906;2022-10-26T13:17:28;22.20;99.90
18717;DHT22;9487;50.892;6.906;2022-10-26T13:19:58;22.30;99.90
18717;DHT22;9487;50.892;6.906;2022-10-26T13:22:25;22.20;99.90
18717;DHT22;9487;50.892;6.906;2022-10-26T13:24:55;22.20;99.90
18717;DHT22;9487;50.892;6.906;2022-10-26T13:27:42;22.10;99.90
18717;DHT22;9487;50.892;6.906;2022-10-26T13:30:41;22.00;99.90
18717;DHT22;9487;50.892;6.906;2022-10-26T13:33:21;22.00;99.90
18717;DHT22;9487;50.892;6.906;2022-10-26T13:35:51;22.10;99.90
18717;DHT22;9487;50.892;6.906;2022-10-26T13:38:22;22.10;99.90
18717;DHT22;9487;50.892;6.906;2022-10-26T13:40:55;22.10;99.90
18717;DHT22;9487;50.892;6.906;2022-10-26T13:43:26;22.10;99.90
18717;DHT22;9487;50.892;6.906;2022-10-26T13:45:55;22.10;99.90
18717;DHT22;9487;50.892;6.906;2022-10-26T14:15:53;21.90;99.90
18717;DHT22;9487;50.892;6.906;2022-10-26T14:18:23;21.90;99.90
18717;DHT22;9487;50.892;6.906;2022-10-26T14:20:56;22.00;99.90
18717;DHT22;9487;50.892;6.906;2022-10-26T14:23:31;22.10;99.90
18717;DHT22;9487;50.892;6.906;2022-10-26T14:25:58;22.10;99.90
18717;DHT22;9487;50.892;6.906;2022-10-26T14:28:27;22.10;99.90
18717;DHT22;9487;50.892;6.906;2022-10-26T14:31:09;22.10;99.90
18717;DHT22;9487;50.892;6.906;2022-10-26T14:33:36;22.10;99.90
18717;DHT22;9487;50.892;6.906;2022-10-26T14:36:04;22.10;99.90
18717;DHT22;9487;50.892;6.906;2022-10-26T14:38:36;22.00;99.90
18717;DHT22;9487;50.892;6.906;2022-10-26T14:41:05;22.10;99.90
18717;DHT22;9487;50.892;6.906;2022-10-26T14:43:32;22.00;99.90
18717;DHT22;9487;50.892;6.906;2022-10-26T14:46:00;22.00;99.90
18717;DHT22;9487;50.892;6.906;2022-10-26T14:48:29;22.00;99.90
18717;DHT22;9487;50.892;6.906;2022-10-26T14:51:05;22.00;99.90
18717;DHT22;9487;50.892;6.906;2022-10-26T14:53:37;21.90;99.90
18717;DHT22;9487;50.892;6.906;2022-10-26T14:56:15;21.90;99.90
18717;DHT22;9487;50.892;6.906;2022-10-26T14:58:43;21.90;99.90
18717;DHT22;9487;50.892;6.906;2022-10-26T15:01:22;21.90;99.90
18717;DHT22;9487;50.892;6.906;2022-10-26T15:03:53;21.90;99.90
18717;DHT22;9487;50.892;6.906;2022-10-26T15:06:41;21.90;99.90
18717;DHT22;9487;50.892;6.906;2022-10-26T15:09:42;21.90;99.90
18717;DHT22;9487;50.892;6.906;2022-10-26T15:12:19;21.90;99.90
18717;DHT22;9487;50.892;6.906;2022-10-26T15:14:46;21.80;99.90
18717;DHT22;9487;50.892;6.906;2022-10-26T15:17:20;21.80;99.90
18717;DHT22;9487;50.892;6.906;2022-10-26T15:19:48;21.60;99.90
18717;DHT22;9487;50.892;6.906;2022-10-26T15:22:22;21.50;99.90
18717;DHT22;9487;50.892;6.906;2022-10-26T15:24:51;21.50;99.90
18717;DHT22;9487;50.892;6.906;2022-10-26T15:27:19;21.40;99.90
18717;DHT22;9487;50.892;6.906;2022-10-26T15:29:49;21.50;99.90
18717;DHT22;9487;50.892;6.906;2022-10-26T15:32:24;21.60;99.90
18717;DHT22;9487;50.892;6.906;2022-10-26T15:35:28;21.60;99.90
18717;DHT22;9487;50.892;6.906;2022-10-26T15:37:56;21.60;99.90
18717;DHT22;9487;50.892;6.906;2022-10-26T15:40:24;21.50;99.90
18717;DHT22;9487;50.892;6.906;2022-10-26T15:42:53;21.50;99.90
18717;DHT22;9487;50.892;6.906;2022-10-26T15:45:21;21.30;99.90
18717;DHT22;9487;50.892;6.906;2022-10-26T15:47:51;21.20;99.90
18717;DHT22;9487;50.892;6.906;2022-10-26T15:50:21;21.20;99.90
18717;DHT22;9487;50.892;6.906;2022-10-26T15:52:48;21.10;99.90
18717;DHT22;9487;50.892;6.906;2022-10-26T15:55:15;21.10;99.90
18717;DHT22;9487;50.892;6.906;2022-10-26T15:57:42;21.00;99.90
18717;DHT22;9487;50.892;6.906;2022-10-26T16:00:14;20.90;99.90
18717;DHT22;9487;50.892;6.906;2022-10-26T16:02:42;20.90;99.90
18717;DHT22;9487;50.892;6.906;2022-10-26T16:05:14;20.90;99.90
18717;DHT22;9487;50.892;6.906;2022-10-26T16:07:44;20.80;99.90
18717;DHT22;9487;50.892;6.906;2022-10-26T16:10:13;20.70;99.90
18717;DHT22;9487;50.892;6.906;2022-10-26T16:12:41;20.60;99.90
18717;DHT22;9487;50.892;6.906;2022-10-26T16:15:18;20.40;99.90
18717;DHT22;9487;50.892;6.906;2022-10-26T16:17:46;20.20;99.90
18717;DHT22;9487;50.892;6.906;2022-10-26T16:20:17;20.10;99.90
18717;DHT22;9487;50.892;6.906;2022-10-26T16:22:46;19.90;99.90
18717;DHT22;9487;50.892;6.906;2022-10-26T16:25:15;19.70;99.90
18717;DHT22;9487;50.892;6.906;2022-10-26T16:27:43;19.60;99.90
18717;DHT22;9487;50.892;6.906;2022-10-26T16:30:11;19.50;99.90
18717;DHT22;9487;50.892;6.906;2022-10-26T16:32:38;19.40;99.90
18717;DHT22;9487;50.892;6.906;2022-10-26T16:35:06;19.30;99.90
18717;DHT22;9487;50.892;6.906;2022-10-26T16:37:34;19.20;99.90
18717;DHT22;9487;50.892;6.906;2022-10-26T16:40:01;19.10;99.90
18717;DHT22;9487;50.892;6.906;2022-10-26T16:42:29;19.20;99.90
18717;DHT22;9487;50.892;6.906;2022-10-26T16:44:56;19.20;99.90
18717;DHT22;9487;50.892;6.906;2022-10-26T16:47:24;19.10;99.90
18717;DHT22;9487;50.892;6.906;2022-10-26T16:49:50;19.10;99.90
18717;DHT22;9487;50.892;6.906;2022-10-26T16:52:17;19.00;99.90
18717;DHT22;9487;50.892;6.906;2022-10-26T16:54:45;19.10;99.90